Time;durP1;ratioP1;P1;durP2;ratioP2;P2;SDS_P1;SDS_P2;PMS_P1;PMS_P2;Temp;Humidity;BMP_temperature;BMP_pressure;BME280_temperature;BME280_humidity;BME280_pressure;Samples;Min_cycle;Max_cycle;Signal;HPM_P1;HPM_P2
2023/02/28 00:00:53;;;;;;;5.10;1.90;;;;;;;-3.67;68.15;97925.28;5052042;28;20573;-62
2023/02/28 00:03:19;;;;;;;4.47;2.10;;;;;;;-3.79;68.63;97929.94;5057090;28;20075;-62
2023/02/28 00:05:46;;;;;;;3.42;1.60;;;;;;;-3.92;69.58;97931.09;5055884;28;20059;-62
2023/02/28 00:08:13;;;;;;;4.70;2.10;;;;;;;-3.92;69.86;97925.81;5056799;28;20617;-62
2023/02/28 00:10:39;;;;;;;4.13;1.70;;;;;;;-4.13;71.31;97933.13;5048499;28;20428;-62
2023/02/28 00:13:06;;;;;;;3.83;1.92;;;;;;;-4.11;73.09;97929.38;5055184;28;20044;-62
2023/02/28 00:15:33;;;;;;;4.30;2.20;;;;;;;-4.00;72.02;97924.84;5055138;28;21391;-62
2023/02/28 00:18:00;;;;;;;4.32;1.98;;;;;;;-4.22;72.07;97924.25;5055941;28;20036;-62
2023/02/28 00:20:27;;;;;;;6.15;1.88;;;;;;;-4.50;74.30;97926.81;5050909;28;20106;-62
2023/02/28 00:22:54;;;;;;;2.75;1.73;;;;;;;-4.42;73.40;97924.31;5054202;28;20049;-63
2023/02/28 00:25:23;;;;;;;4.25;1.98;;;;;;;-4.69;74.96;97920.56;5056655;28;20032;-62
2023/02/28 00:27:50;;;;;;;3.55;2.00;;;;;;;-4.76;75.26;97914.19;5054534;28;20040;-62
2023/02/28 00:30:20;;;;;;;4.72;2.17;;;;;;;-4.72;75.80;97921.69;5056572;28;20481;-62
2023/02/28 00:32:46;;;;;;;4.60;2.25;;;;;;;-4.85;76.29;97922.00;5053141;28;20041;-62
2023/02/28 00:35:13;;;;;;;4.57;2.15;;;;;;;-4.75;77.56;97924.59;5055244;28;20124;-62
2023/02/28 00:37:41;;;;;;;4.68;1.88;;;;;;;-4.90;76.98;97921.56;5058643;28;20037;-62
2023/02/28 00:40:09;;;;;;;5.32;2.17;;;;;;;-4.85;78.09;97916.72;5050565;28;20040;-62
2023/02/28 00:42:36;;;;;;;3.70;2.17;;;;;;;-4.89;77.59;97928.53;5060663;28;20573;-62
2023/02/28 00:45:04;;;;;;;3.78;1.90;;;;;;;-4.76;79.52;97922.13;5055506;28;20040;-62
2023/02/28 00:47:32;;;;;;;4.65;2.15;;;;;;;-4.76;78.67;97920.31;5055547;28;20119;-62
2023/02/28 00:49:59;;;;;;;5.97;2.15;;;;;;;-4.73;78.10;97914.75;5057403;28;20024;-62
2023/02/28 00:52:25;;;;;;;5.88;2.80;;;;;;;-4.55;77.47;97915.81;5053533;28;20049;-62
2023/02/28 00:54:54;;;;;;;6.93;2.60;;;;;;;-4.49;77.40;97918.72;5052926;28;20838;-62
2023/02/28 00:57:20;;;;;;;6.60;2.60;;;;;;;-4.49;76.95;97917.91;5054851;28;20134;-62
2023/02/28 00:59:47;;;;;;;5.40;2.70;;;;;;;-4.34;78.00;97915.66;5056170;28;20126;-62
2023/02/28 01:02:14;;;;;;;5.45;2.63;;;;;;;-4.38;77.28;97909.81;5053414;28;20040;-62
2023/02/28 01:04:41;;;;;;;5.30;2.25;;;;;;;-4.32;78.00;97914.53;5059713;28;20033;-62
2023/02/28 01:07:07;;;;;;;5.75;2.72;;;;;;;-4.42;76.83;97921.66;5057231;28;20048;-62
2023/02/28 01:09:34;;;;;;;6.22;2.78;;;;;;;-4.52;78.11;97916.38;5057950;28;20041;-62
2023/02/28 01:12:00;;;;;;;5.15;2.22;;;;;;;-4.49;78.76;97913.44;5054013;28;20040;-62
2023/02/28 01:14:27;;;;;;;5.50;2.38;;;;;;;-4.51;78.27;97911.91;5046910;28;20541;-62
2023/02/28 01:16:53;;;;;;;3.92;2.53;;;;;;;-4.59;78.76;97912.63;5053186;28;20052;-62
2023/02/28 01:19:20;;;;;;;5.63;2.88;;;;;;;-4.73;79.33;97908.63;5054423;28;20043;-62
2023/02/28 01:21:46;;;;;;;4.88;2.63;;;;;;;-4.77;81.16;97905.44;5051160;28;20076;-62
2023/02/28 01:24:13;;;;;;;8.40;3.53;;;;;;;-4.61;79.69;97907.47;5059020;28;20103;-62
2023/02/28 01:26:39;;;;;;;6.25;2.92;;;;;;;-4.62;80.55;97915.56;5051307;28;20616;-62
2023/02/28 01:29:06;;;;;;;7.78;2.90;;;;;;;-4.77;80.35;97912.50;5054359;28;20037;-62
2023/02/28 01:31:33;;;;;;;5.97;2.95;;;;;;;-4.83;82.24;97912.09;5055094;28;20124;-62
2023/02/28 01:34:00;;;;;;;6.20;3.25;;;;;;;-4.73;84.29;97904.19;5054946;28;20468;-62
2023/02/28 01:36:29;;;;;;;6.90;3.10;;;;;;;-4.68;81.25;97911.69;5052751;28;20052;-62
2023/02/28 01:38:56;;;;;;;5.45;2.75;;;;;;;-4.83;81.63;97904.19;5053422;28;20519;-63
2023/02/28 01:41:24;;;;;;;5.40;3.05;;;;;;;-5.03;82.57;97906.00;5056890;28;20036;-62
2023/02/28 01:44:22;;;;;;;4.75;2.75;;;;;;;-5.20;84.48;97904.88;5052125;28;20159;-62
2023/02/28 01:46:49;;;;;;;5.65;2.85;;;;;;;-5.36;85.07;97902.78;5053579;28;20397;-62
2023/02/28 01:49:17;;;;;;;5.65;2.90;;;;;;;-5.32;86.97;97901.53;5052213;28;20044;-62
2023/02/28 01:51:50;;;;;;;6.80;2.88;;;;;;;-5.30;84.73;97907.53;5053016;28;20080;-62
2023/02/28 01:54:26;;;;;;;4.95;2.50;;;;;;;-5.61;86.41;97910.22;5052222;28;20045;-62
2023/02/28 01:57:01;;;;;;;5.05;2.90;;;;;;;-5.67;87.41;97906.34;5055807;28;20116;-62
2023/02/28 01:59:50;;;;;;;6.97;2.88;;;;;;;-5.72;87.79;97907.72;5067861;28;20040;-62
2023/02/28 02:02:20;;;;;;;4.75;2.60;;;;;;;-5.72;88.62;97900.63;5043440;28;20592;-62
2023/02/28 02:04:54;;;;;;;6.07;2.92;;;;;;;-5.65;88.08;97899.13;5051783;28;20076;-62
2023/02/28 02:07:21;;;;;;;4.38;2.60;;;;;;;-5.61;88.26;97892.59;5058640;28;20106;-62
2023/02/28 02:09:48;;;;;;;4.13;2.60;;;;;;;-5.52;87.64;97895.41;5054355;28;20072;-62
2023/02/28 02:12:45;;;;;;;8.30;3.17;;;;;;;-5.70;88.00;97888.16;5054266;28;20037;-62
2023/02/28 02:15:24;;;;;;;5.78;3.08;;;;;;;-5.65;89.35;97882.44;5033685;28;20650;-62
2023/02/28 02:17:56;;;;;;;5.72;2.60;;;;;;;-5.71;88.62;97885.63;5058331;28;20114;-62
2023/02/28 02:20:22;;;;;;;4.75;2.83;;;;;;;-5.68;88.65;97880.91;5057330;28;20041;-62
2023/02/28 02:22:54;;;;;;;7.30;3.13;;;;;;;-5.68;89.04;97877.47;5051698;28;20037;-62
2023/02/28 02:25:39;;;;;;;5.75;2.75;;;;;;;-5.73;89.56;97888.41;5057730;28;20099;-62
2023/02/28 02:28:17;;;;;;;4.15;2.35;;;;;;;-5.76;89.26;97880.75;5053913;28;20499;-62
2023/02/28 02:30:59;;;;;;;6.47;3.17;;;;;;;-5.71;89.87;97880.38;5050315;28;20094;-62
2023/02/28 02:34:04;;;;;;;5.00;2.72;;;;;;;-5.65;90.09;97877.16;5052091;28;20056;-62
2023/02/28 02:36:42;;;;;;;6.07;2.88;;;;;;;-5.66;90.54;97868.44;5052947;28;20043;-61
2023/02/28 02:39:18;;;;;;;6.60;3.28;;;;;;;-5.69;89.79;97879.25;5053536;28;20102;-62
2023/02/28 02:41:58;;;;;;;5.53;2.65;;;;;;;-5.53;89.81;97875.28;5055605;28;20041;-62
2023/02/28 02:44:31;;;;;;;5.13;3.00;;;;;;;-5.62;89.60;97877.75;5051614;28;20040;-62
2023/02/28 02:47:12;;;;;;;6.50;3.53;;;;;;;-5.79;90.95;97879.22;5053498;28;20503;-62
2023/02/28 02:49:44;;;;;;;7.33;2.80;;;;;;;-5.80;92.77;97871.44;5051625;28;20041;-62
2023/02/28 02:52:14;;;;;;;7.07;2.90;;;;;;;-5.75;91.96;97875.34;5046889;28;20178;-62
2023/02/28 02:54:46;;;;;;;5.03;2.90;;;;;;;-5.71;91.83;97873.28;5052537;28;20052;-62
2023/02/28 02:57:25;;;;;;;6.30;2.65;;;;;;;-5.55;92.12;97878.03;5052129;28;20120;-62
2023/02/28 02:59:53;;;;;;;5.57;3.17;;;;;;;-5.53;92.05;97870.00;5045519;28;20064;-62
2023/02/28 03:02:21;;;;;;;6.90;3.13;;;;;;;-5.52;92.04;97871.66;5047859;28;20579;-62
2023/02/28 03:05:02;;;;;;;6.65;3.10;;;;;;;-5.38;91.78;97881.78;5055748;28;20045;-62
2023/02/28 03:07:28;;;;;;;5.90;2.90;;;;;;;-5.17;91.63;97877.38;5050951;28;20128;-62
2023/02/28 03:09:57;;;;;;;5.93;2.97;;;;;;;-5.07;90.71;97880.84;5056072;28;20642;-62
2023/02/28 03:12:38;;;;;;;6.82;3.40;;;;;;;-5.13;91.14;97876.94;5047031;28;20041;-62
2023/02/28 03:15:23;;;;;;;6.60;3.58;;;;;;;-5.28;91.95;97878.31;5047057;28;20043;-62
2023/02/28 03:18:11;;;;;;;7.60;3.35;;;;;;;-5.22;93.17;97872.50;5053523;28;20112;-62
2023/02/28 03:21:07;;;;;;;5.10;3.58;;;;;;;-5.13;91.62;97876.09;5052097;28;20563;-62
2023/02/28 03:23:45;;;;;;;5.40;3.05;;;;;;;-5.26;92.47;97879.03;5044062;28;20057;-62
2023/02/28 03:26:26;;;;;;;6.03;2.95;;;;;;;-5.39;93.54;97871.38;5051543;28;20040;-62
2023/02/28 03:29:12;;;;;;;6.05;3.15;;;;;;;-5.26;95.10;97873.75;5057977;28;20094;-62
2023/02/28 03:31:44;;;;;;;5.60;3.33;;;;;;;-5.12;93.30;97877.78;5056620;28;20648;-62
2023/02/28 03:34:22;;;;;;;8.02;3.40;;;;;;;-4.94;94.62;97875.25;5051315;28;20580;-62
2023/02/28 03:36:53;;;;;;;5.95;3.75;;;;;;;-4.71;92.37;97870.50;5055285;28;20057;-62
2023/02/28 03:39:26;;;;;;;6.32;4.13;;;;;;;-4.76;92.50;97878.03;5055833;28;20047;-62
2023/02/28 03:42:03;;;;;;;9.73;3.78;;;;;;;-4.64;92.76;97869.94;5058683;28;20037;-62
2023/02/28 03:44:49;;;;;;;4.90;3.05;;;;;;;-4.50;92.73;97873.97;5056111;28;20043;-62
2023/02/28 03:47:26;;;;;;;7.85;3.95;;;;;;;-4.44;91.49;97873.38;5055153;28;20048;-62
2023/02/28 03:49:59;;;;;;;7.68;3.55;;;;;;;-4.38;91.32;97867.53;5053127;28;20551;-62
2023/02/28 03:52:32;;;;;;;6.68;3.45;;;;;;;-4.38;91.57;97871.97;5053114;28;20782;-62
2023/02/28 03:55:06;;;;;;;7.07;3.65;;;;;;;-4.31;91.03;97873.06;5051599;28;20093;-62
2023/02/28 03:58:10;;;;;;;6.88;3.80;;;;;;;-4.26;91.18;97870.81;5053723;28;20633;-62
2023/02/28 04:01:07;;;;;;;6.55;3.78;;;;;;;-4.20;91.23;97870.22;5051768;28;20055;-62
2023/02/28 04:03:38;;;;;;;8.55;3.90;;;;;;;-4.16;91.05;97870.78;5050428;28;21227;-62
2023/02/28 04:06:07;;;;;;;6.70;3.63;;;;;;;-4.14;90.61;97875.91;5052724;28;20123;-62
2023/02/28 04:08:33;;;;;;;5.95;3.47;;;;;;;-4.16;90.52;97878.72;5050758;28;20094;-62
2023/02/28 04:11:12;;;;;;;5.90;3.72;;;;;;;-4.18;90.85;97876.22;5056168;28;20079;-62
2023/02/28 04:13:38;;;;;;;7.57;3.58;;;;;;;-4.14;91.14;97873.25;5053764;28;20044;-62
2023/02/28 04:16:11;;;;;;;6.80;4.07;;;;;;;-4.10;90.91;97877.28;5055665;28;20037;-62
2023/02/28 04:18:47;;;;;;;7.22;3.40;;;;;;;-4.11;90.54;97876.47;5060805;28;20059;-62
2023/02/28 04:21:13;;;;;;;6.13;3.67;;;;;;;-4.13;92.33;97881.06;5052593;28;20068;-62
2023/02/28 04:23:40;;;;;;;7.28;3.97;;;;;;;-4.12;91.41;97879.25;5059891;28;20102;-62
2023/02/28 04:26:06;;;;;;;9.68;4.03;;;;;;;-4.10;92.16;97878.13;5056533;28;20655;-62
2023/02/28 04:28:33;;;;;;;7.65;4.35;;;;;;;-4.10;92.25;97872.84;5059807;28;20094;-62
2023/02/28 04:31:03;;;;;;;6.82;3.65;;;;;;;-4.05;91.74;97873.22;5057007;28;20039;-62
2023/02/28 04:33:31;;;;;;;7.82;3.90;;;;;;;-4.05;92.06;97873.22;5055627;28;20094;-62
2023/02/28 04:36:08;;;;;;;6.45;3.95;;;;;;;-4.01;92.42;97875.59;5053571;28;20094;-62
2023/02/28 04:38:37;;;;;;;7.15;3.97;;;;;;;-4.03;92.17;97870.44;5056607;28;20641;-62
2023/02/28 04:41:04;;;;;;;7.47;3.97;;;;;;;-4.02;92.83;97863.34;5059677;28;20044;-62
2023/02/28 04:43:32;;;;;;;6.75;4.18;;;;;;;-3.98;92.69;97862.06;5060196;28;20047;-62
2023/02/28 04:46:02;;;;;;;7.75;3.88;;;;;;;-3.95;93.45;97862.59;5053715;28;20118;-62
2023/02/28 04:48:30;;;;;;;6.85;4.30;;;;;;;-3.94;92.50;97866.91;5055355;28;20111;-62
2023/02/28 04:51:05;;;;;;;8.32;4.55;;;;;;;-3.87;92.26;97863.69;5061038;28;20044;-62
2023/02/28 04:53:32;;;;;;;8.50;4.40;;;;;;;-3.83;92.61;97871.16;5055287;28;20040;-62
2023/02/28 04:55:58;;;;;;;6.20;3.65;;;;;;;-3.90;92.16;97866.63;5053315;28;20617;-62
2023/02/28 04:58:25;;;;;;;9.48;4.88;;;;;;;-3.84;91.77;97860.75;5055120;28;20706;-62
2023/02/28 05:00:53;;;;;;;6.78;4.88;;;;;;;-3.78;91.97;97862.78;5060963;28;20449;-62
2023/02/28 05:03:23;;;;;;;7.45;3.30;;;;;;;-3.79;92.74;97867.25;5056620;28;20052;-62
2023/02/28 05:05:52;;;;;;;6.32;3.90;;;;;;;-3.69;92.17;97869.03;5053743;28;20037;-62
2023/02/28 05:08:18;;;;;;;7.65;4.35;;;;;;;-3.68;90.55;97873.31;5050363;28;20143;-62
2023/02/28 05:10:45;;;;;;;7.45;4.50;;;;;;;-3.66;90.74;97871.34;5055517;28;20108;-62
2023/02/28 05:13:12;;;;;;;6.85;4.63;;;;;;;-3.64;90.83;97876.50;5058084;28;20119;-62
2023/02/28 05:15:38;;;;;;;8.88;5.22;;;;;;;-3.64;90.03;97874.69;5062594;28;20048;-62
2023/02/28 05:18:05;;;;;;;7.32;4.43;;;;;;;-3.64;90.39;97874.69;5073894;28;20072;-62
2023/02/28 05:20:32;;;;;;;6.18;3.72;;;;;;;-3.61;90.39;97873.56;5067624;28;20064;-62
2023/02/28 05:22:59;;;;;;;8.57;4.05;;;;;;;-3.60;90.29;97878.72;5062198;28;20130;-62
2023/02/28 05:25:26;;;;;;;6.28;4.32;;;;;;;-3.47;88.92;97869.59;5062519;28;20076;-62
2023/02/28 05:27:52;;;;;;;8.00;4.63;;;;;;;-3.41;88.63;97868.97;5059963;28;20523;-62
2023/02/28 05:30:19;;;;;;;9.95;5.18;;;;;;;-3.36;88.50;97868.53;5064243;28;20067;-62
2023/02/28 05:32:50;;;;;;;7.22;4.10;;;;;;;-3.48;88.33;97874.03;5062967;28;20567;-62
2023/02/28 05:35:16;;;;;;;10.90;4.95;;;;;;;-3.49;88.50;97871.53;5065326;28;20040;-62
2023/02/28 05:37:43;;;;;;;11.07;6.38;;;;;;;-3.43;88.38;97870.94;5065113;28;20082;-62
2023/02/28 05:40:10;;;;;;;9.93;5.93;;;;;;;-3.45;88.40;97870.25;5058840;28;20095;-62
2023/02/28 05:42:37;;;;;;;10.52;5.57;;;;;;;-3.45;88.19;97870.25;5062997;28;20107;-63
2023/02/28 05:45:05;;;;;;;9.20;5.88;;;;;;;-3.47;87.99;97864.28;5065191;28;20500;-62
2023/02/28 05:47:31;;;;;;;9.82;4.75;;;;;;;-3.47;87.91;97864.28;5062365;28;20044;-63
2023/02/28 05:49:58;;;;;;;9.38;4.30;;;;;;;-3.54;87.97;97872.81;5062432;28;20040;-62
2023/02/28 05:52:24;;;;;;;7.68;4.45;;;;;;;-3.51;88.03;97869.03;5062811;28;20050;-62
2023/02/28 05:54:51;;;;;;;8.25;4.60;;;;;;;-3.45;87.78;97871.09;5062881;28;20036;-63
2023/02/28 05:57:17;;;;;;;7.90;4.70;;;;;;;-3.36;86.90;97871.19;5061557;28;20101;-62
2023/02/28 05:59:50;;;;;;;7.35;4.80;;;;;;;-3.38;86.53;97867.84;5060607;28;20570;-62
2023/02/28 06:02:17;;;;;;;8.85;4.70;;;;;;;-3.41;86.38;97875.09;5060192;28;20052;-61
2023/02/28 06:04:44;;;;;;;12.32;4.70;;;;;;;-3.34;86.66;97874.50;5067919;28;20662;-62
2023/02/28 06:07:11;;;;;;;8.05;4.68;;;;;;;-3.40;86.18;97871.47;5059826;28;20048;-62
2023/02/28 06:09:38;;;;;;;8.32;4.68;;;;;;;-3.37;86.15;97880.94;5061209;28;20049;-62
2023/02/28 06:12:07;;;;;;;10.38;5.35;;;;;;;-3.33;85.69;97869.06;5064326;28;20131;-62
2023/02/28 06:14:34;;;;;;;7.45;4.32;;;;;;;-3.33;85.61;97871.69;5066600;28;20097;-62
2023/02/28 06:17:01;;;;;;;7.05;4.25;;;;;;;-3.33;85.51;97873.50;5063243;28;20043;-62
2023/02/28 06:19:29;;;;;;;8.55;4.15;;;;;;;-3.26;85.60;97874.56;5065545;28;20093;-62
2023/02/28 06:21:56;;;;;;;8.02;4.32;;;;;;;-3.31;86.15;97875.00;5057759;28;20041;-58
2023/02/28 06:24:24;;;;;;;7.68;4.45;;;;;;;-3.33;85.54;97884.09;5055869;28;20036;-57
2023/02/28 06:26:51;;;;;;;11.68;5.32;;;;;;;-3.33;86.08;97886.75;5059261;28;20460;-57
2023/02/28 06:29:18;;;;;;;11.27;4.85;;;;;;;-3.29;85.23;97886.31;5058065;28;20040;-56
2023/02/28 06:31:45;;;;;;;7.57;4.30;;;;;;;-3.19;85.20;97888.03;5057664;28;20047;-56
2023/02/28 06:34:14;;;;;;;9.18;4.32;;;;;;;-3.22;84.98;97889.19;5057698;28;20044;-58
2023/02/28 06:36:41;;;;;;;9.98;6.03;;;;;;;-3.27;84.83;97892.28;5056000;28;20044;-59
2023/02/28 06:39:08;;;;;;;7.93;4.28;;;;;;;-3.26;85.73;97898.41;5055040;28;20040;-56
2023/02/28 06:41:37;;;;;;;10.75;5.03;;;;;;;-3.23;85.20;97902.56;5059952;28;20066;-59
2023/02/28 06:44:20;;;;;;;8.23;4.80;;;;;;;-3.12;84.67;97899.72;5055019;28;20047;-56
2023/02/28 06:46:46;;;;;;;9.32;4.65;;;;;;;-3.15;85.35;97907.94;5058411;28;20056;-58
2023/02/28 06:49:13;;;;;;;11.02;4.75;;;;;;;-3.16;85.04;97901.81;5048580;28;20466;-57
2023/02/28 06:51:43;;;;;;;7.82;5.03;;;;;;;-3.30;85.56;97900.53;5052899;28;20053;-56
2023/02/28 06:54:10;;;;;;;9.38;5.20;;;;;;;-3.23;85.98;97897.28;5058266;28;20072;-58
2023/02/28 06:56:37;;;;;;;10.65;5.18;;;;;;;-3.28;85.62;97901.22;5064765;28;20048;-58
2023/02/28 06:59:05;;;;;;;8.50;4.40;;;;;;;-3.10;85.31;97913.63;5057358;28;20048;-57
2023/02/28 07:01:32;;;;;;;7.82;4.18;;;;;;;-3.21;85.62;97905.91;5057910;28;20098;-57
2023/02/28 07:04:00;;;;;;;13.52;6.18;;;;;;;-3.25;85.76;97915.97;5063841;28;20051;-57
2023/02/28 07:06:27;;;;;;;10.98;5.10;;;;;;;-3.25;85.93;97915.97;5065633;28;20043;-57
2023/02/28 07:08:54;;;;;;;10.00;6.05;;;;;;;-3.08;86.10;97910.81;5059783;28;20635;-57
2023/02/28 07:11:22;;;;;;;9.82;6.40;;;;;;;-3.03;84.71;97916.50;5066475;28;20043;-58
2023/02/28 07:13:55;;;;;;;11.13;5.47;;;;;;;-3.06;84.70;97916.81;5051293;28;20123;-57
2023/02/28 07:16:24;;;;;;;8.30;4.70;;;;;;;-2.91;83.21;97917.94;5057936;28;20141;-57
2023/02/28 07:18:54;;;;;;;9.07;4.95;;;;;;;-2.83;83.21;97917.19;5066934;28;20055;-57
2023/02/28 07:21:20;;;;;;;9.05;5.65;;;;;;;-2.92;83.11;97932.19;5066210;28;20821;-55
2023/02/28 07:23:47;;;;;;;10.68;4.88;;;;;;;-2.83;83.32;97933.09;5055980;28;20111;-58
2023/02/28 07:26:16;;;;;;;10.57;5.47;;;;;;;-2.90;82.92;97922.28;5063085;28;20040;-59
2023/02/28 07:28:45;;;;;;;12.07;5.50;;;;;;;-2.88;82.92;97922.94;5067184;28;20048;-58
2023/02/28 07:31:13;;;;;;;9.98;5.45;;;;;;;-2.75;82.30;97927.03;5058586;28;20136;-57
2023/02/28 07:33:41;;;;;;;10.60;4.85;;;;;;;-2.93;82.76;97927.03;5059580;28;20162;-57
2023/02/28 07:36:14;;;;;;;7.68;4.55;;;;;;;-2.87;83.17;97926.44;5068054;28;20510;-58
2023/02/28 07:38:43;;;;;;;10.70;4.30;;;;;;;-2.73;82.22;97925.03;5060424;28;20048;-59
2023/02/28 07:41:13;;;;;;;;;;;;;;;-2.61;81.60;97931.78;5061419;28;20054;-57
2023/02/28 07:43:39;;;;;;;9.70;5.63;;;;;;;-2.81;82.34;97927.63;5061775;28;20645;-57
2023/02/28 07:46:09;;;;;;;9.85;5.70;;;;;;;-2.81;82.51;97936.41;5059383;28;20045;-59
2023/02/28 07:48:36;;;;;;;10.13;5.20;;;;;;;-2.86;82.21;97925.44;5064352;28;20048;-58
2023/02/28 07:51:03;;;;;;;10.32;5.65;;;;;;;-2.81;82.61;97928.47;5069597;28;20122;-55
2023/02/28 07:53:30;;;;;;;12.60;5.88;;;;;;;-2.88;83.05;97922.94;5067308;28;20048;-57
2023/02/28 07:55:58;;;;;;;11.65;6.47;;;;;;;-2.77;82.36;97924.53;5062926;28;20055;-55
2023/02/28 07:58:26;;;;;;;10.40;6.65;;;;;;;-2.81;82.66;97931.13;5061654;28;20102;-58
2023/02/28 08:00:52;;;;;;;9.85;6.47;;;;;;;-2.57;84.17;97926.16;5057180;28;20045;-57
2023/02/28 08:03:20;;;;;;;11.95;6.32;;;;;;;-2.47;82.05;97926.91;5054662;28;20123;-57
2023/02/28 08:05:47;;;;;;;8.95;5.75;;;;;;;-2.43;80.71;97927.44;5061923;28;20052;-55
2023/02/28 08:08:15;;;;;;;10.35;6.03;;;;;;;-2.31;80.54;97938.63;5056760;28;20041;-60
2023/02/28 08:10:42;;;;;;;10.50;5.20;;;;;;;-2.22;79.99;97935.88;5058018;28;20043;-57
2023/02/28 08:13:09;;;;;;;10.10;5.47;;;;;;;-2.33;79.31;97941.44;5055507;28;20032;-56
2023/02/28 08:15:36;;;;;;;10.00;5.93;;;;;;;-2.51;80.29;97944.13;5065368;28;20479;-58
2023/02/28 08:18:02;;;;;;;8.48;5.47;;;;;;;-2.75;81.31;97942.94;5058139;28;20037;-58
2023/02/28 08:20:30;;;;;;;11.48;5.22;;;;;;;-2.69;81.67;97933.53;5059695;28;20075;-58
2023/02/28 08:22:57;;;;;;;10.63;5.70;;;;;;;-2.66;81.48;97944.66;5062233;28;20057;-54
2023/02/28 08:25:23;;;;;;;11.32;5.90;;;;;;;-2.75;81.46;97950.88;5058358;28;20442;-55
2023/02/28 08:27:52;;;;;;;10.10;5.90;;;;;;;-2.64;81.14;97949.81;5059161;28;20045;-58
2023/02/28 08:30:18;;;;;;;10.10;6.15;;;;;;;-2.64;81.50;97945.34;5057958;28;20044;-55
2023/02/28 08:32:45;;;;;;;12.85;5.95;;;;;;;-2.75;81.40;97946.44;5056916;28;20565;-58
2023/02/28 08:35:12;;;;;;;9.68;5.60;;;;;;;-2.62;80.82;97953.97;5066047;28;20115;-58
2023/02/28 08:37:38;;;;;;;13.25;6.60;;;;;;;-2.62;81.03;97953.13;5050246;28;20040;-56
2023/02/28 08:40:05;;;;;;;15.40;6.90;;;;;;;-2.47;80.71;97956.06;5062320;28;20045;-56
2023/02/28 08:42:32;;;;;;;9.88;6.00;;;;;;;-2.56;80.65;97951.69;5064964;28;20127;-51
2023/02/28 08:44:59;;;;;;;12.40;6.80;;;;;;;-2.54;80.43;97950.56;5061765;28;20044;-58
2023/02/28 08:47:25;;;;;;;10.45;5.95;;;;;;;-2.59;80.90;97958.13;5062344;28;20047;-56
2023/02/28 08:49:52;;;;;;;13.38;6.68;;;;;;;-2.40;80.66;97966.91;5065158;28;20041;-56
2023/02/28 08:52:18;;;;;;;13.15;6.45;;;;;;;-2.65;80.76;97961.41;5061250;28;20040;-58
2023/02/28 08:54:45;;;;;;;10.52;6.20;;;;;;;-2.65;81.50;97956.94;5053927;28;20049;-58
2023/02/28 08:57:11;;;;;;;9.95;5.55;;;;;;;-2.42;80.81;97958.28;5069161;28;20074;-56
2023/02/28 08:59:38;;;;;;;8.82;5.13;;;;;;;-2.27;79.89;97964.69;5056468;28;20607;-58
2023/02/28 09:02:04;;;;;;;11.25;7.35;;;;;;;-2.38;80.19;97964.94;5071478;28;20070;-56
2023/02/28 09:04:31;;;;;;;9.63;5.45;;;;;;;-2.45;80.17;97969.19;5070801;28;20078;-57
2023/02/28 09:06:57;;;;;;;11.30;7.10;;;;;;;-2.37;79.73;97969.25;5064000;28;20404;-55
2023/02/28 09:09:23;;;;;;;12.20;7.28;;;;;;;-2.41;79.78;97962.59;5066984;28;20119;-56
2023/02/28 09:11:50;;;;;;;9.18;5.45;;;;;;;-2.38;79.68;97972.91;5064535;28;20048;-57
2023/02/28 09:14:17;;;;;;;9.40;5.70;;;;;;;-2.37;80.03;97963.94;5066872;28;20119;-56
2023/02/28 09:16:44;;;;;;;12.23;6.72;;;;;;;-2.29;80.08;97965.84;5063761;28;20044;-57
2023/02/28 09:19:12;;;;;;;11.77;7.07;;;;;;;-2.20;79.71;97964.06;5064172;28;20040;-55
2023/02/28 09:21:38;;;;;;;12.45;6.88;;;;;;;-2.24;79.87;97967.00;5058223;28;20063;-54
2023/02/28 09:24:05;;;;;;;9.95;5.75;;;;;;;-1.97;78.26;97964.38;5059531;28;20045;-56
2023/02/28 09:26:32;;;;;;;12.82;6.68;;;;;;;-2.06;77.70;97963.50;5070665;28;20051;-56
2023/02/28 09:29:12;;;;;;;13.73;7.32;;;;;;;-2.00;78.10;97968.19;5055380;28;20040;-54
2023/02/28 09:31:39;;;;;;;14.13;7.55;;;;;;;-2.05;77.92;97969.63;5063311;28;20052;-55
2023/02/28 09:34:06;;;;;;;13.88;7.20;;;;;;;-1.90;77.80;97972.53;5053753;28;20042;-57
2023/02/28 09:36:34;;;;;;;10.95;6.30;;;;;;;-1.94;77.29;97972.03;5063202;28;20041;-55
2023/02/28 09:39:12;;;;;;;12.00;7.00;;;;;;;-2.02;78.34;97972.81;5060173;28;20044;-56
2023/02/28 09:41:47;;;;;;;10.77;6.20;;;;;;;-1.81;76.83;97973.44;5057694;28;20131;-56
2023/02/28 09:44:20;;;;;;;11.07;6.90;;;;;;;-1.94;77.31;97969.38;5055435;28;20641;-53
2023/02/28 09:46:52;;;;;;;12.48;7.63;;;;;;;-1.80;76.92;97973.28;5063974;28;20048;-54
2023/02/28 09:49:33;;;;;;;10.85;6.60;;;;;;;-1.71;76.63;97979.44;5063340;28;20040;-54
2023/02/28 09:52:03;;;;;;;10.15;5.95;;;;;;;-1.62;76.07;97975.03;5059397;28;20091;-55
2023/02/28 09:54:32;;;;;;;11.00;6.40;;;;;;;-1.52;75.26;97977.56;5061083;28;20143;-57
2023/02/28 09:57:04;;;;;;;11.70;7.00;;;;;;;-1.57;75.29;97978.88;5067198;28;20043;-54
2023/02/28 09:59:30;;;;;;;11.07;6.55;;;;;;;-1.47;74.98;97977.91;5061388;28;20090;-57
2023/02/28 10:02:11;;;;;;;12.57;7.15;;;;;;;-1.22;73.19;97986.78;5067964;28;20094;-55
2023/02/28 10:05:01;;;;;;;12.48;7.13;;;;;;;-1.34;73.87;97977.44;5057356;28;20044;-57
2023/02/28 10:07:41;;;;;;;11.93;6.63;;;;;;;-1.39;72.99;97987.72;5055726;28;20105;-58
2023/02/28 10:10:38;;;;;;;13.73;6.72;;;;;;;-1.34;73.47;97972.13;5067083;28;20047;-56
2023/02/28 10:13:19;;;;;;;13.30;6.72;;;;;;;-1.36;73.83;97979.44;5053752;28;20071;-57
2023/02/28 10:15:51;;;;;;;13.38;7.18;;;;;;;-1.12;73.49;97983.16;5055908;28;20102;-55
2023/02/28 10:18:22;;;;;;;13.25;7.97;;;;;;;-1.36;73.44;97984.75;5057913;28;20079;-56
2023/02/28 10:20:50;;;;;;;16.42;6.30;;;;;;;-1.12;72.39;97989.31;5064660;28;20247;-57
2023/02/28 10:23:26;;;;;;;11.00;6.60;;;;;;;-1.18;71.99;97993.44;5056175;28;20054;-59
2023/02/28 10:26:09;;;;;;;13.35;7.00;;;;;;;-1.15;71.63;97999.44;5060280;28;20053;-57
2023/02/28 10:28:35;;;;;;;11.02;6.68;;;;;;;-0.89;71.56;98004.66;5059977;28;20076;-56
2023/02/28 10:31:02;;;;;;;11.35;6.03;;;;;;;-0.85;71.35;98002.53;5057417;28;20040;-58
2023/02/28 10:33:34;;;;;;;13.75;6.93;;;;;;;-0.80;71.36;98006.34;5056486;28;20045;-55
2023/02/28 10:36:02;;;;;;;12.65;7.85;;;;;;;-0.71;70.33;98011.66;5060143;28;20047;-55
2023/02/28 10:38:35;;;;;;;13.50;7.13;;;;;;;-0.57;69.58;97995.09;5061605;28;20056;-56
2023/02/28 10:41:15;;;;;;;13.85;6.90;;;;;;;-0.64;69.60;97994.06;5061575;28;20119;-55
2023/02/28 10:43:44;;;;;;;10.57;5.70;;;;;;;-0.36;68.93;97990.25;5054309;28;20654;-55
2023/02/28 10:46:25;;;;;;;10.02;6.25;;;;;;;-0.17;67.30;97999.75;5058782;28;20044;-56
2023/02/28 10:49:05;;;;;;;11.45;6.38;;;;;;;0.06;65.87;97993.72;5058278;28;20055;-53
2023/02/28 10:51:40;;;;;;;10.93;6.78;;;;;;;-0.24;66.05;97998.75;5054488;28;20090;-56
2023/02/28 10:54:16;;;;;;;10.13;6.22;;;;;;;-0.04;66.29;97997.41;5055009;28;20066;-56
2023/02/28 10:56:43;;;;;;;10.70;5.60;;;;;;;0.24;65.57;97996.19;5054010;28;20032;-56
2023/02/28 10:59:30;;;;;;;9.82;6.07;;;;;;;0.18;64.62;97995.03;5055266;28;20036;-56
2023/02/28 11:01:57;;;;;;;10.00;6.30;;;;;;;0.32;64.32;97995.31;5051751;28;20075;-57
2023/02/28 11:04:32;;;;;;;11.90;6.47;;;;;;;0.19;64.21;98001.19;5050627;28;20098;-56
2023/02/28 11:07:02;;;;;;;10.52;6.68;;;;;;;0.35;64.69;97993.16;5051943;28;20063;-55
2023/02/28 11:09:34;;;;;;;10.35;6.47;;;;;;;0.57;63.38;97993.44;5056109;28;20094;-55
2023/02/28 11:12:04;;;;;;;11.77;6.75;;;;;;;0.94;62.52;97984.94;5052458;28;20053;-57
2023/02/28 11:14:39;;;;;;;10.48;6.53;;;;;;;1.16;62.06;97988.66;5055509;28;20408;-56
2023/02/28 11:17:15;;;;;;;10.82;6.63;;;;;;;1.12;61.95;97990.84;5051694;28;20114;-57
2023/02/28 11:19:47;;;;;;;13.77;7.53;;;;;;;0.71;62.62;97991.03;5052696;28;20052;-55
2023/02/28 11:22:21;;;;;;;10.98;7.40;;;;;;;0.73;62.78;97994.34;5052066;28;20090;-56
2023/02/28 11:24:53;;;;;;;10.60;6.63;;;;;;;0.86;62.46;97984.00;5052354;28;20056;-57
2023/02/28 11:27:29;;;;;;;11.15;7.35;;;;;;;0.95;61.70;97978.63;5052894;28;20096;-53
2023/02/28 11:29:56;;;;;;;13.13;7.70;;;;;;;0.66;62.35;97975.56;5052103;28;20124;-57
2023/02/28 11:32:28;;;;;;;12.27;6.78;;;;;;;0.74;62.49;97988.03;5053716;28;20101;-59
2023/02/28 11:35:10;;;;;;;10.90;7.68;;;;;;;0.88;62.62;97989.13;5053032;28;20087;-59
2023/02/28 11:37:38;;;;;;;11.77;6.90;;;;;;;0.92;62.04;97986.97;5050316;28;20083;-57
2023/02/28 11:40:22;;;;;;;11.35;6.78;;;;;;;1.12;61.37;97984.69;5056883;28;20051;-57
2023/02/28 11:43:20;;;;;;;12.02;7.45;;;;;;;0.96;61.67;97977.59;5063951;28;20552;-58
2023/02/28 11:45:59;;;;;;;10.18;7.32;;;;;;;0.92;62.30;97984.28;5062082;28;20040;-56
2023/02/28 11:48:34;;;;;;;11.73;7.57;;;;;;;0.69;62.75;97969.88;5060251;28;20040;-57